createdAt,value
2023-01-11T00:00:46.909Z,12.35
2023-01-11T00:03:13.437Z,18.77
2023-01-11T00:05:41.626Z,16.13
2023-01-11T00:08:08.999Z,19.48
2023-01-11T00:10:36.185Z,18.30
2023-01-11T00:13:03.469Z,14.77
2023-01-11T00:15:30.494Z,17.15
2023-01-11T00:17:57.717Z,14.20
2023-01-11T00:20:24.522Z,16.98
2023-01-11T00:22:50.997Z,23.35
2023-01-11T00:25:17.851Z,15.15
2023-01-11T00:27:44.325Z,15.45
2023-01-11T00:30:11.561Z,18.58
2023-01-11T00:32:38.048Z,16.08
2023-01-11T00:35:04.909Z,21.38
2023-01-11T00:37:31.436Z,17.05
2023-01-11T00:39:58.005Z,14.13
2023-01-11T00:42:42.838Z,20.98
2023-01-11T00:45:28.644Z,12.32
2023-01-11T00:47:57.983Z,18.58
2023-01-11T00:50:25.583Z,15.30
2023-01-11T00:52:52.106Z,12.77
2023-01-11T00:55:18.877Z,17.50
2023-01-11T00:57:45.368Z,17.88
2023-01-11T01:00:12.636Z,16.30
2023-01-11T01:02:39.244Z,17.40
2023-01-11T01:05:06.253Z,17.83
2023-01-11T01:07:32.706Z,14.65
2023-01-11T01:09:59.149Z,10.57
2023-01-11T01:12:43.988Z,13.82
2023-01-11T01:15:10.885Z,15.50
2023-01-11T01:17:37.309Z,13.05
2023-01-11T01:20:04.341Z,16.83
2023-01-11T01:22:30.841Z,13.93
2023-01-11T01:24:57.307Z,15.77
2023-01-11T01:27:23.786Z,16.23
2023-01-11T01:29:50.225Z,18.35
2023-01-11T01:32:16.775Z,15.85
2023-01-11T01:34:43.322Z,14.35
2023-01-11T01:37:11.273Z,12.93
2023-01-11T01:39:38.512Z,15.32
2023-01-11T01:42:06.062Z,12.85
2023-01-11T01:45:16.786Z,12.55
2023-01-11T01:47:53.581Z,17.55
2023-01-11T01:50:29.517Z,17.90
2023-01-11T01:53:03.248Z,28.05
2023-01-11T01:55:36.290Z,7.65
2023-01-11T01:58:07.225Z,13.85
2023-01-11T02:00:33.919Z,10.75
2023-01-11T02:03:01.993Z,18.67
2023-01-11T02:12:49.560Z,19.02
2023-01-11T02:15:18.375Z,9.73
2023-01-11T02:17:44.940Z,10.35
2023-01-11T02:20:19.972Z,8.77
2023-01-11T02:22:46.465Z,12.68
2023-01-11T02:25:12.856Z,10.48
2023-01-11T02:28:22.423Z,17.95
2023-01-11T02:31:07.415Z,10.88
2023-01-11T02:33:36.531Z,11.68
2023-01-11T02:36:12.349Z,13.18
2023-01-11T02:38:57.912Z,9.40
2023-01-11T02:41:57.011Z,9.15
2023-01-11T02:44:47.332Z,10.93
2023-01-11T02:47:21.624Z,8.55
2023-01-11T02:49:59.853Z,13.52
2023-01-11T02:52:55.803Z,16.08
2023-01-11T02:55:27.690Z,9.57
2023-01-11T02:57:57.663Z,15.90
2023-01-11T03:00:25.620Z,7.72
2023-01-11T03:03:13.571Z,9.88
2023-01-11T03:06:03.155Z,13.73
2023-01-11T03:08:58.704Z,13.02
2023-01-11T03:12:17.751Z,12.90
2023-01-11T03:14:56.412Z,9.75
2023-01-11T03:17:28.802Z,10.55
2023-01-11T03:20:26.833Z,10.20
2023-01-11T03:23:27.375Z,8.00
2023-01-11T03:25:57.011Z,19.50
2023-01-11T03:28:59.915Z,7.78
2023-01-11T03:31:38.535Z,11.07
2023-01-11T03:34:26.665Z,13.65
2023-01-11T03:37:01.750Z,7.65
2023-01-11T03:39:54.054Z,8.77
2023-01-11T03:42:24.101Z,11.32
2023-01-11T03:44:55.348Z,10.55
2023-01-11T03:47:25.203Z,10.60
2023-01-11T03:50:01.440Z,9.05
2023-01-11T03:52:32.558Z,12.57
2023-01-11T03:55:00.792Z,7.22
2023-01-11T03:57:37.702Z,5.90
2023-01-11T04:00:07.536Z,11.93
2023-01-11T04:02:40.169Z,5.40
2023-01-11T04:05:09.304Z,10.30
2023-01-11T04:07:35.953Z,9.10
2023-01-11T04:10:03.739Z,12.90
2023-01-11T04:12:30.189Z,12.93
2023-01-11T04:14:56.701Z,10.52
2023-01-11T04:17:23.364Z,5.95
2023-01-11T04:19:49.871Z,11.40
2023-01-11T04:22:16.386Z,9.25
2023-01-11T04:24:43.030Z,9.07
2023-01-11T04:27:09.529Z,15.57
2023-01-11T04:29:36.181Z,6.60
2023-01-11T04:32:03.651Z,13.25
2023-01-11T04:34:30.130Z,10.40
2023-01-11T04:36:56.687Z,11.40
2023-01-11T04:39:23.201Z,11.82
2023-01-11T04:42:08.046Z,9.57
2023-01-11T04:44:34.537Z,10.52
2023-01-11T04:47:00.956Z,12.15
2023-01-11T04:49:27.590Z,9.98
2023-01-11T04:51:54.043Z,9.98
2023-01-11T04:54:20.516Z,12.52
2023-01-11T04:56:46.932Z,14.10
2023-01-11T04:59:14.222Z,6.20
2023-01-11T05:01:40.817Z,11.23
2023-01-11T05:04:07.277Z,14.25
2023-01-11T05:06:33.876Z,6.75
2023-01-11T05:09:00.401Z,7.72
2023-01-11T05:11:26.901Z,9.98
2023-01-11T05:13:53.334Z,5.55
2023-01-11T05:16:23.742Z,8.13
2023-01-11T05:18:51.724Z,10.50
2023-01-11T05:21:21.748Z,9.07
2023-01-11T05:23:49.032Z,7.90
2023-01-11T05:26:22.845Z,10.80
2023-01-11T05:28:50.578Z,6.63
2023-01-11T05:31:17.318Z,7.93
2023-01-11T05:33:44.478Z,13.82
2023-01-11T05:36:14.284Z,10.82
2023-01-11T05:38:40.835Z,17.73
2023-01-11T05:41:09.738Z,7.93
2023-01-11T05:43:55.540Z,8.05
2023-01-11T05:46:22.318Z,15.27
2023-01-11T05:48:49.132Z,12.77
2023-01-11T05:51:15.892Z,13.88
2023-01-11T05:53:42.507Z,12.85
2023-01-11T05:56:09.308Z,9.25
2023-01-11T05:58:35.885Z,12.00
2023-01-11T06:01:02.399Z,6.90
2023-01-11T06:03:28.839Z,5.65
2023-01-11T06:05:55.443Z,13.18
2023-01-11T06:08:21.888Z,9.50
2023-01-11T06:10:55.887Z,10.35
2023-01-11T06:13:26.669Z,8.73
2023-01-11T06:16:06.907Z,7.85
2023-01-11T06:18:36.584Z,14.05
2023-01-11T06:21:04.452Z,9.38
2023-01-11T06:23:33.946Z,12.80
2023-01-11T06:26:05.099Z,7.75
2023-01-11T06:28:31.659Z,9.85
2023-01-11T06:30:59.406Z,9.20
2023-01-11T06:33:27.814Z,8.27
2023-01-11T06:35:54.778Z,6.40
2023-01-11T06:38:23.505Z,4.38
2023-01-11T06:41:00.315Z,5.93
2023-01-11T06:43:28.357Z,8.27
2023-01-11T06:45:55.283Z,14.10
2023-01-11T06:48:22.744Z,7.95
2023-01-11T06:50:54.783Z,6.35
2023-01-11T06:53:22.370Z,11.40
2023-01-11T06:55:52.848Z,7.60
2023-01-11T06:58:20.418Z,9.98
2023-01-11T07:00:47.327Z,7.40
2023-01-11T07:03:13.852Z,10.02
2023-01-11T07:05:41.213Z,5.30
2023-01-11T07:08:08.432Z,10.32
2023-01-11T07:10:35.064Z,9.70
2023-01-11T07:13:01.761Z,8.88
2023-01-11T07:15:28.515Z,7.07
2023-01-11T07:17:59.758Z,6.78
2023-01-11T07:20:26.903Z,13.13
2023-01-11T07:22:58.281Z,11.98
2023-01-11T07:25:25.856Z,6.40
2023-01-11T07:27:59.749Z,8.02
2023-01-11T07:30:28.439Z,7.07
2023-01-11T07:32:57.017Z,6.82
2023-01-11T07:35:23.484Z,13.90
2023-01-11T07:37:50.098Z,7.45
2023-01-11T07:40:18.001Z,10.75
2023-01-11T07:43:13.417Z,7.50
2023-01-11T07:45:45.703Z,4.80
2023-01-11T07:48:13.785Z,7.97
2023-01-11T07:50:44.265Z,7.82
2023-01-11T07:53:12.274Z,10.38
2023-01-11T07:55:39.773Z,8.88
2023-01-11T07:58:07.740Z,6.18
2023-01-11T08:00:34.290Z,5.88
2023-01-11T08:03:01.659Z,12.75
2023-01-11T08:05:28.396Z,9.40
2023-01-11T08:07:54.981Z,10.18
2023-01-11T08:10:21.562Z,13.13
2023-01-11T08:13:07.555Z,10.57
2023-01-11T08:15:39.385Z,9.38
2023-01-11T08:18:06.412Z,11.90
2023-01-11T08:20:33.168Z,12.20
2023-01-11T08:23:06.201Z,11.82
2023-01-11T08:25:36.142Z,8.70
2023-01-11T08:28:05.463Z,9.07
2023-01-11T08:30:32.323Z,8.95
2023-01-11T08:33:00.980Z,14.82
2023-01-11T08:35:27.848Z,6.63
2023-01-11T08:37:54.515Z,11.20
2023-01-11T08:40:23.852Z,10.45
2023-01-11T08:42:55.338Z,6.82
2023-01-11T08:45:22.167Z,2.55
2023-01-11T08:47:50.731Z,8.18
2023-01-11T08:50:18.676Z,8.23
2023-01-11T08:52:45.909Z,9.82
2023-01-11T08:55:12.483Z,6.80
2023-01-11T08:57:39.209Z,10.43
2023-01-11T09:00:07.478Z,5.25
2023-01-11T09:02:34.280Z,9.43
2023-01-11T09:05:00.884Z,5.97
2023-01-11T09:07:27.376Z,6.03
2023-01-11T09:09:53.912Z,9.73
2023-01-11T09:12:20.409Z,6.60
2023-01-11T09:14:46.942Z,6.82
2023-01-11T09:17:13.439Z,13.20
2023-01-11T09:19:39.920Z,8.50
2023-01-11T09:22:06.400Z,3.63
2023-01-11T09:24:33.008Z,7.18
2023-01-11T09:27:00.427Z,3.92
2023-01-11T09:29:27.098Z,13.57
2023-01-11T09:31:53.763Z,8.23
2023-01-11T09:34:21.012Z,4.22
2023-01-11T09:36:49.049Z,3.80
2023-01-11T09:39:18.829Z,4.72
2023-01-11T09:41:45.277Z,6.07
2023-01-11T09:44:18.998Z,10.73
2023-01-11T09:46:51.314Z,10.18
2023-01-11T09:49:31.371Z,8.32
2023-01-11T09:52:21.733Z,4.28
2023-01-11T09:54:48.230Z,7.97
2023-01-11T09:57:18.312Z,10.23
2023-01-11T09:59:52.901Z,4.22
2023-01-11T10:02:59.216Z,7.30
2023-01-11T10:05:29.845Z,5.78
2023-01-11T10:18:31.010Z,5.90
2023-01-11T10:19:12.344Z,6.88
2023-01-11T10:21:27.258Z,10.18
2023-01-11T10:23:58.048Z,9.55
2023-01-11T10:26:32.365Z,7.18
2023-01-11T10:29:16.501Z,9.23
2023-01-11T10:31:59.766Z,7.50
2023-01-11T10:34:59.965Z,5.25
2023-01-11T10:37:49.989Z,9.43
2023-01-11T10:40:40.632Z,4.85
2023-01-11T10:43:21.852Z,4.45
2023-01-11T10:45:52.868Z,8.00
2023-01-11T10:48:28.324Z,6.82
2023-01-11T10:50:54.902Z,7.90
2023-01-11T10:53:28.224Z,4.60
2023-01-11T10:56:06.858Z,5.50
2023-01-11T10:59:06.170Z,6.95
2023-01-11T11:01:46.373Z,5.78
2023-01-11T11:04:42.625Z,4.85
2023-01-11T11:07:24.177Z,6.28
2023-01-11T11:10:26.311Z,7.25
2023-01-11T11:13:07.423Z,5.45
2023-01-11T11:15:40.900Z,6.47
2023-01-11T11:18:07.652Z,6.72
2023-01-11T11:20:34.792Z,10.07
2023-01-11T11:23:01.869Z,8.27
2023-01-11T11:25:37.731Z,6.15
2023-01-11T11:28:07.087Z,12.18
2023-01-11T11:30:39.523Z,8.93
2023-01-11T11:33:27.935Z,5.32
2023-01-11T11:36:02.188Z,3.70
2023-01-11T11:38:31.013Z,5.60
2023-01-11T11:41:17.748Z,5.68
2023-01-11T11:43:47.232Z,5.25
2023-01-11T11:46:18.912Z,7.45
2023-01-11T11:49:15.728Z,5.25
2023-01-11T11:51:45.169Z,6.35
2023-01-11T11:54:28.440Z,5.68
2023-01-11T11:56:57.603Z,7.93
2023-01-11T11:59:28.507Z,6.68
2023-01-11T12:02:00.791Z,4.15
2023-01-11T12:04:39.976Z,5.88
2023-01-11T12:07:16.116Z,10.25
2023-01-11T12:09:47.594Z,10.63
2023-01-11T12:12:24.958Z,9.15
2023-01-11T12:15:20.938Z,5.18
2023-01-11T12:17:48.097Z,7.22
2023-01-11T12:20:23.951Z,4.53
2023-01-11T12:23:15.719Z,8.38
2023-01-11T12:26:11.179Z,6.00
2023-01-11T12:29:14.728Z,5.28
2023-01-11T12:32:05.843Z,8.38
2023-01-11T12:34:45.813Z,6.25
2023-01-11T12:37:30.086Z,6.32
2023-01-11T12:40:17.361Z,13.07
2023-01-11T12:43:03.581Z,5.00
2023-01-11T12:45:59.433Z,5.72
2023-01-11T12:48:36.416Z,6.15
2023-01-11T12:51:37.139Z,7.18
2023-01-11T12:54:29.553Z,6.53
2023-01-11T12:57:31.968Z,8.13
2023-01-11T13:00:01.036Z,6.53
2023-01-11T13:02:36.386Z,4.03
2023-01-11T13:05:29.197Z,7.80
2023-01-11T13:08:16.548Z,6.40
2023-01-11T13:11:35.224Z,8.43
2023-01-11T13:14:30.906Z,6.00
2023-01-11T13:17:18.696Z,4.95
2023-01-11T13:20:06.914Z,4.00
2023-01-11T13:22:38.776Z,6.05
2023-01-11T13:25:16.887Z,4.85
2023-01-11T13:27:44.954Z,6.88
2023-01-11T13:30:14.066Z,5.57
2023-01-11T13:32:44.387Z,4.03
2023-01-11T13:35:18.387Z,8.40
2023-01-11T13:37:52.327Z,4.25
2023-01-11T13:40:24.831Z,5.43
2023-01-11T13:46:47.304Z,5.13
2023-01-11T13:49:29.215Z,5.88
2023-01-11T13:52:04.275Z,4.75
2023-01-11T13:54:56.678Z,5.10
2023-01-11T13:57:34.313Z,6.93
2023-01-11T14:00:11.189Z,8.35
2023-01-11T14:02:48.059Z,9.13
2023-01-11T14:05:18.718Z,6.10
2023-01-11T14:08:15.117Z,8.10
2023-01-11T14:11:09.595Z,6.63
2023-01-11T14:14:15.703Z,4.25
2023-01-11T14:17:04.268Z,4.78
2023-01-11T14:19:55.198Z,5.03
2023-01-11T14:22:45.531Z,4.33
2023-01-11T14:25:33.156Z,5.57
2023-01-11T14:28:49.151Z,9.00
2023-01-11T14:31:40.665Z,6.88
2023-01-11T14:34:22.459Z,6.97
2023-01-11T14:39:53.259Z,4.40
2023-01-11T14:42:45.104Z,5.25
2023-01-11T14:48:20.592Z,5.63
2023-01-11T14:51:33.210Z,9.07
2023-01-11T14:54:12.199Z,5.53
2023-01-11T14:56:49.866Z,7.25
2023-01-11T14:59:40.350Z,7.05
2023-01-11T15:02:16.303Z,7.30
2023-01-11T15:04:52.385Z,10.05
2023-01-11T15:07:31.556Z,8.65
2023-01-11T15:10:07.177Z,10.48
2023-01-11T15:12:41.333Z,5.32
2023-01-11T15:15:24.921Z,13.15
2023-01-11T15:18:15.832Z,11.23
2023-01-11T15:21:01.820Z,10.13
2023-01-11T15:23:39.926Z,5.55
2023-01-11T15:26:15.547Z,6.38
2023-01-11T15:29:12.463Z,9.77
2023-01-11T15:32:17.969Z,5.18
2023-01-11T15:35:19.643Z,5.50
2023-01-11T15:38:14.228Z,7.40
2023-01-11T15:44:41.766Z,6.53
2023-01-11T15:47:11.155Z,6.00
2023-01-11T15:50:02.647Z,7.57
2023-01-11T15:52:34.998Z,6.35
2023-01-11T15:55:23.807Z,5.78
2023-01-11T16:01:23.641Z,11.57
2023-01-11T16:04:10.574Z,9.02
2023-01-11T16:07:10.324Z,11.55
2023-01-11T16:10:01.565Z,7.82
2023-01-11T16:13:23.366Z,7.47
2023-01-11T16:16:31.828Z,6.15
2023-01-11T16:19:09.872Z,4.65
2023-01-11T16:21:49.434Z,6.38
2023-01-11T16:24:20.914Z,5.03
2023-01-11T16:27:17.409Z,6.70
2023-01-11T16:29:50.689Z,6.18
2023-01-11T16:32:27.238Z,6.53
2023-01-11T16:34:55.728Z,6.15
2023-01-11T16:37:36.086Z,7.07
2023-01-11T16:40:15.539Z,6.13
2023-01-11T16:42:48.536Z,6.90
2023-01-11T16:45:23.837Z,8.15
2023-01-11T16:48:23.099Z,5.90
2023-01-11T16:51:07.279Z,5.20
2023-01-11T16:53:37.179Z,5.10
2023-01-11T16:56:05.825Z,7.68
2023-01-11T16:58:40.320Z,12.23
2023-01-11T17:01:12.558Z,5.97
2023-01-11T17:03:54.201Z,7.72
2023-01-11T17:06:23.355Z,5.68
2023-01-11T17:08:55.654Z,8.93
2023-01-11T17:11:42.747Z,9.32
2023-01-11T17:14:37.664Z,11.38
2023-01-11T17:17:09.812Z,7.65
2023-01-11T17:19:43.429Z,7.32
2023-01-11T17:22:27.698Z,9.20
2023-01-11T17:25:01.145Z,11.68
2023-01-11T17:27:41.175Z,11.55
2023-01-11T17:30:19.814Z,8.23
2023-01-11T17:32:49.302Z,8.65
2023-01-11T17:35:24.511Z,8.00
2023-01-11T17:38:03.250Z,6.45
2023-01-11T17:40:33.024Z,6.10
2023-01-11T17:43:30.148Z,7.75
2023-01-11T17:45:58.780Z,8.13
2023-01-11T17:48:29.571Z,8.93
2023-01-11T17:50:59.276Z,11.60
2023-01-11T17:53:29.307Z,9.32
2023-01-11T17:56:00.116Z,8.82
2023-01-11T17:58:33.864Z,10.13
2023-01-11T18:01:09.386Z,8.15
2023-01-11T18:03:48.351Z,15.13
2023-01-11T18:06:41.375Z,12.55
2023-01-11T18:09:29.528Z,12.85
2023-01-11T18:12:18.074Z,13.63
2023-01-11T18:14:52.436Z,11.70
2023-01-11T18:17:24.683Z,12.70
2023-01-11T18:19:51.158Z,16.80
2023-01-11T18:22:26.384Z,13.10
2023-01-11T18:24:54.679Z,14.50
2023-01-11T18:27:32.462Z,13.75
2023-01-11T18:30:02.450Z,14.98
2023-01-11T18:32:35.373Z,19.55
2023-01-11T18:35:02.095Z,14.32
2023-01-11T18:37:28.569Z,16.42
2023-01-11T18:39:55.083Z,13.80
2023-01-11T18:42:26.820Z,18.45
2023-01-11T18:44:53.346Z,11.93
2023-01-11T18:47:28.360Z,24.38
2023-01-11T18:49:55.397Z,14.70
2023-01-11T18:52:27.639Z,17.25
2023-01-11T18:54:56.037Z,15.65
2023-01-11T18:57:23.583Z,18.15
2023-01-11T18:59:54.356Z,17.95
2023-01-11T19:02:25.713Z,18.53
2023-01-11T19:04:57.179Z,20.48
2023-01-11T19:07:26.001Z,23.38
2023-01-11T19:09:54.756Z,21.40
2023-01-11T19:12:21.493Z,25.48
2023-01-11T19:14:48.050Z,22.15
2023-01-11T19:17:14.605Z,20.30
2023-01-11T19:19:41.604Z,24.15
2023-01-11T19:22:09.775Z,20.85
2023-01-11T19:24:36.399Z,19.63
2023-01-11T19:27:03.649Z,22.88
2023-01-11T19:29:30.714Z,26.25
2023-01-11T19:31:57.335Z,24.65
2023-01-11T19:34:24.176Z,26.52
2023-01-11T19:36:52.422Z,19.73
2023-01-11T19:39:19.467Z,26.80
2023-01-11T19:41:55.370Z,19.60
2023-01-11T19:44:22.813Z,31.55
2023-01-11T19:46:56.738Z,27.02
2023-01-11T19:49:23.625Z,21.95
2023-01-11T19:51:51.001Z,24.60
2023-01-11T19:54:20.654Z,21.85
2023-01-11T19:56:48.689Z,25.70
2023-01-11T19:59:15.686Z,24.45
2023-01-11T20:01:42.859Z,24.58
2023-01-11T20:04:10.838Z,19.20
2023-01-11T20:06:40.853Z,18.45
2023-01-11T20:09:09.883Z,25.25
2023-01-11T20:11:36.745Z,22.67
2023-01-11T20:14:03.218Z,24.40
2023-01-11T20:16:29.714Z,28.95
2023-01-11T20:18:57.292Z,23.95
2023-01-11T20:21:27.558Z,24.25
2023-01-11T20:23:57.570Z,28.00
2023-01-11T20:26:24.559Z,24.40
2023-01-11T20:28:54.461Z,24.17
2023-01-11T20:31:27.279Z,23.92
2023-01-11T20:33:55.208Z,31.98
2023-01-11T20:36:21.821Z,21.27
2023-01-11T20:38:48.266Z,16.58
2023-01-11T20:41:36.880Z,27.67
2023-01-11T20:44:04.869Z,21.65
2023-01-11T20:46:31.763Z,16.25
2023-01-11T20:48:58.307Z,35.63
2023-01-11T20:51:24.755Z,31.35
2023-01-11T20:53:51.482Z,23.45
2023-01-11T20:56:18.616Z,23.33
2023-01-11T20:58:48.661Z,24.25
2023-01-11T21:01:27.764Z,32.83
2023-01-11T21:03:57.389Z,18.10
2023-01-11T21:06:24.171Z,28.63
2023-01-11T21:08:55.233Z,30.10
2023-01-11T21:11:21.940Z,24.80
2023-01-11T21:13:50.500Z,25.77
2023-01-11T21:16:17.060Z,20.15
2023-01-11T21:18:44.006Z,17.88
2023-01-11T21:21:19.050Z,32.33
2023-01-11T21:23:46.761Z,24.27
2023-01-11T21:26:16.331Z,25.55
2023-01-11T21:28:44.277Z,26.23
2023-01-11T21:31:12.846Z,34.20
2023-01-11T21:33:39.744Z,33.53
2023-01-11T21:36:11.550Z,30.10
2023-01-11T21:38:38.535Z,34.72
2023-01-11T21:41:10.719Z,33.55
2023-01-11T21:43:37.729Z,28.38
2023-01-11T21:46:06.518Z,35.90
2023-01-11T21:48:33.622Z,34.28
2023-01-11T21:51:00.191Z,29.33
2023-01-11T21:53:33.414Z,31.02
2023-01-11T21:56:07.872Z,29.10
2023-01-11T21:58:35.365Z,29.20
2023-01-11T22:01:11.185Z,41.47
2023-01-11T22:03:38.164Z,28.63
2023-01-11T22:06:05.106Z,32.72
2023-01-11T22:08:35.437Z,26.55
2023-01-11T22:11:04.383Z,40.60
2023-01-11T22:13:34.123Z,28.17
2023-01-11T22:16:06.669Z,30.15
2023-01-11T22:18:34.743Z,28.55
2023-01-11T22:21:07.335Z,34.83
2023-01-11T22:23:34.022Z,27.38
2023-01-11T22:26:05.513Z,34.38
2023-01-11T22:28:32.161Z,30.70
2023-01-11T22:31:07.873Z,32.30
2023-01-11T22:33:36.498Z,34.38
2023-01-11T22:36:04.478Z,34.33
2023-01-11T22:38:30.890Z,24.58
2023-01-11T22:40:59.593Z,30.63
2023-01-11T22:43:26.074Z,27.60
2023-01-11T22:46:00.378Z,30.55
2023-01-11T22:48:27.599Z,29.48
2023-01-11T22:50:55.088Z,31.92
2023-01-11T22:53:21.734Z,29.63
2023-01-11T22:55:48.255Z,27.75
2023-01-11T22:58:14.680Z,24.52
2023-01-11T23:00:41.159Z,26.17
2023-01-11T23:03:07.891Z,30.75
2023-01-11T23:05:34.516Z,33.22
2023-01-11T23:08:01.096Z,28.88
2023-01-11T23:10:27.542Z,30.85
2023-01-11T23:13:12.423Z,23.35
2023-01-11T23:15:39.553Z,24.98
2023-01-11T23:18:07.078Z,24.27
2023-01-11T23:20:34.594Z,22.90
2023-01-11T23:23:01.335Z,24.42
2023-01-11T23:25:27.776Z,33.25
2023-01-11T23:27:54.269Z,23.23
2023-01-11T23:30:20.927Z,25.40
2023-01-11T23:32:47.341Z,25.98
2023-01-11T23:35:13.864Z,22.77
2023-01-11T23:37:40.393Z,19.80
2023-01-11T23:40:07.862Z,21.33
2023-01-11T23:42:35.495Z,24.25
2023-01-11T23:45:01.964Z,25.98
2023-01-11T23:47:31.404Z,21.77
2023-01-11T23:50:00.751Z,23.58
2023-01-11T23:52:30.297Z,25.83
2023-01-11T23:54:57.434Z,26.80
2023-01-11T23:57:25.426Z,22.33
2023-01-11T23:59:52.315Z,28.35
